createdAt,value
2023-05-15T00:01:41.102Z,12.47
2023-05-15T00:04:09.104Z,12.44
2023-05-15T00:06:42.392Z,12.44
2023-05-15T00:09:12.102Z,12.51
2023-05-15T00:11:47.973Z,12.43
2023-05-15T00:14:17.409Z,12.47
2023-05-15T00:16:47.647Z,12.44
2023-05-15T00:19:17.011Z,12.44
2023-05-15T00:21:59.411Z,12.48
2023-05-15T00:24:28.826Z,12.42
2023-05-15T00:27:06.724Z,12.47
2023-05-15T00:29:40.795Z,12.40
2023-05-15T00:32:09.769Z,12.43
2023-05-15T00:34:40.050Z,12.51
2023-05-15T00:37:09.416Z,12.56
2023-05-15T00:39:38.550Z,12.46
2023-05-15T00:42:16.610Z,12.49
2023-05-15T00:44:48.243Z,12.46
2023-05-15T00:47:19.237Z,12.52
2023-05-15T00:49:50.799Z,12.52
2023-05-15T00:52:27.465Z,12.51
2023-05-15T00:55:01.458Z,12.54
2023-05-15T00:57:46.018Z,12.46
2023-05-15T01:00:18.746Z,12.53
2023-05-15T01:02:52.044Z,12.54
2023-05-15T01:05:23.925Z,12.49
2023-05-15T01:07:58.602Z,12.47
2023-05-15T01:10:27.903Z,12.47
2023-05-15T01:13:00.054Z,12.65
2023-05-15T01:15:31.803Z,12.61
2023-05-15T01:18:01.527Z,12.42
2023-05-15T01:20:38.043Z,12.53
2023-05-15T01:23:27.630Z,12.42
2023-05-15T01:26:29.734Z,12.44
2023-05-15T01:29:02.963Z,12.47
2023-05-15T01:31:36.156Z,12.37
2023-05-15T01:34:17.116Z,12.48
2023-05-15T01:36:54.662Z,12.45
2023-05-15T01:39:30.298Z,12.34
2023-05-15T01:42:11.844Z,12.44
2023-05-15T01:44:52.529Z,12.38
2023-05-15T01:47:32.294Z,12.32
2023-05-15T01:50:08.721Z,12.27
2023-05-15T01:52:43.016Z,12.22
2023-05-15T01:55:13.348Z,12.29
2023-05-15T01:57:43.390Z,12.30
2023-05-15T02:00:20.549Z,12.32
2023-05-15T02:02:52.149Z,12.35
2023-05-15T02:05:21.385Z,12.40
2023-05-15T02:07:50.992Z,12.29
2023-05-15T02:10:28.341Z,12.20
2023-05-15T02:12:58.095Z,12.42
2023-05-15T02:15:49.802Z,12.21
2023-05-15T02:18:19.713Z,12.31
2023-05-15T02:20:51.662Z,12.33
2023-05-15T02:23:28.048Z,12.14
2023-05-15T02:26:18.730Z,12.19
2023-05-15T02:29:03.085Z,12.17
2023-05-15T02:31:37.163Z,12.14
2023-05-15T02:34:14.625Z,12.28
2023-05-15T02:36:50.238Z,12.34
2023-05-15T02:39:25.514Z,12.40
2023-05-15T02:41:55.064Z,12.52
2023-05-15T02:44:32.213Z,12.33
2023-05-15T02:47:07.638Z,12.28
2023-05-15T02:49:38.426Z,12.32
2023-05-15T02:52:10.579Z,12.13
2023-05-15T02:54:41.420Z,12.44
2023-05-15T02:57:13.276Z,12.35
2023-05-15T02:59:43.222Z,12.34
2023-05-15T03:02:14.911Z,12.23
2023-05-15T03:04:43.449Z,12.23
2023-05-15T03:07:14.086Z,12.25
2023-05-15T03:09:44.212Z,12.33
2023-05-15T03:12:21.834Z,12.21
2023-05-15T03:14:59.238Z,12.38
2023-05-15T03:17:31.475Z,12.37
2023-05-15T03:20:00.551Z,12.34
2023-05-15T03:22:31.563Z,12.29
2023-05-15T03:25:01.843Z,12.39
2023-05-15T03:27:33.066Z,12.33
2023-05-15T03:30:01.404Z,12.36
2023-05-15T03:32:35.624Z,12.25
2023-05-15T03:35:05.547Z,12.31
2023-05-15T03:37:37.769Z,12.20
2023-05-15T03:40:08.649Z,12.29
2023-05-15T03:42:43.607Z,12.57
2023-05-15T03:45:21.515Z,12.23
2023-05-15T03:48:01.266Z,12.33
2023-05-15T03:50:31.586Z,12.34
2023-05-15T03:53:09.580Z,12.31
2023-05-15T03:55:48.156Z,12.29
2023-05-15T03:58:25.837Z,12.30
2023-05-15T04:00:56.696Z,12.18
2023-05-15T04:03:32.234Z,12.26
2023-05-15T04:06:02.551Z,12.14
2023-05-15T04:08:32.026Z,12.11
2023-05-15T04:11:07.930Z,12.09
2023-05-15T04:13:41.203Z,11.87
2023-05-15T04:16:12.247Z,11.99
2023-05-15T04:18:44.605Z,11.94
2023-05-15T04:21:20.478Z,12.09
2023-05-15T04:23:51.826Z,12.24
2023-05-15T04:26:22.702Z,12.46
2023-05-15T04:29:04.330Z,12.29
2023-05-15T04:31:45.981Z,12.35
2023-05-15T04:34:17.403Z,12.56
2023-05-15T04:36:48.564Z,12.35
2023-05-15T04:39:22.693Z,12.00
2023-05-15T04:41:53.429Z,11.99
2023-05-15T04:44:22.815Z,11.93
2023-05-15T04:46:52.201Z,12.01
2023-05-15T04:49:24.195Z,11.96
2023-05-15T04:51:55.921Z,12.09
2023-05-15T04:54:26.959Z,11.92
2023-05-15T04:56:57.997Z,11.89
2023-05-15T04:59:29.176Z,12.06
2023-05-15T05:01:58.434Z,11.87
2023-05-15T05:04:32.586Z,11.94
2023-05-15T05:07:04.366Z,11.71
2023-05-15T05:09:39.440Z,11.88
2023-05-15T05:12:16.598Z,11.85
2023-05-15T05:14:47.496Z,12.07
2023-05-15T05:17:19.323Z,11.94
2023-05-15T05:19:58.348Z,12.13
2023-05-15T05:22:30.076Z,12.14
2023-05-15T05:25:01.754Z,12.13
2023-05-15T05:27:31.103Z,12.18
2023-05-15T05:30:07.628Z,12.33
2023-05-15T05:32:41.874Z,12.12
2023-05-15T05:35:16.755Z,12.05
2023-05-15T05:37:47.141Z,12.04
2023-05-15T05:40:29.235Z,12.06
2023-05-15T05:43:05.653Z,11.99
2023-05-15T05:45:38.547Z,12.23
2023-05-15T05:48:08.144Z,12.22
2023-05-15T05:50:40.823Z,12.29
2023-05-15T05:53:17.225Z,12.42
2023-05-15T05:55:54.761Z,12.52
2023-05-15T05:58:26.245Z,12.39
2023-05-15T06:00:55.552Z,12.38
2023-05-15T06:03:26.631Z,12.57
2023-05-15T06:05:57.268Z,12.30
2023-05-15T06:08:27.193Z,12.49
2023-05-15T06:10:57.555Z,12.84
2023-05-15T06:13:29.449Z,12.76
2023-05-15T06:15:58.425Z,12.83
2023-05-15T06:18:28.972Z,12.76
2023-05-15T06:21:01.424Z,12.58
2023-05-15T06:23:31.146Z,12.75
2023-05-15T06:26:04.524Z,12.71
2023-05-15T06:28:32.714Z,12.62
2023-05-15T06:31:01.818Z,12.63
2023-05-15T06:33:40.170Z,12.60
2023-05-15T06:36:12.662Z,12.53
2023-05-15T06:38:42.025Z,12.67
2023-05-15T06:41:19.070Z,12.41
2023-05-15T06:43:49.857Z,12.53
2023-05-15T06:46:20.919Z,12.64
2023-05-15T06:48:53.016Z,12.75
2023-05-15T06:51:30.375Z,12.72
2023-05-15T06:54:03.142Z,12.93
2023-05-15T06:56:41.652Z,13.06
2023-05-15T06:59:12.856Z,12.85
2023-05-15T07:01:43.882Z,13.20
2023-05-15T07:04:19.868Z,13.24
2023-05-15T07:06:52.266Z,12.93
2023-05-15T07:09:23.913Z,12.95
2023-05-15T07:12:01.772Z,13.26
2023-05-15T07:14:31.375Z,13.49
2023-05-15T07:16:59.785Z,13.48
2023-05-15T07:19:36.140Z,13.14
2023-05-15T07:22:08.632Z,13.44
2023-05-15T07:24:48.413Z,13.20
2023-05-15T07:27:18.845Z,13.40
2023-05-15T07:29:50.797Z,13.37
2023-05-15T07:32:20.338Z,13.42
2023-05-15T07:34:51.747Z,13.62
2023-05-15T07:37:24.889Z,13.59
2023-05-15T07:39:56.451Z,13.69
2023-05-15T07:42:31.645Z,13.54
2023-05-15T07:45:06.018Z,13.75
2023-05-15T07:47:43.090Z,13.62
2023-05-15T07:50:12.156Z,13.61
2023-05-15T07:52:51.414Z,13.94
2023-05-15T07:55:20.726Z,13.92
2023-05-15T07:57:54.026Z,13.90
2023-05-15T08:00:23.399Z,14.02
2023-05-15T08:02:51.933Z,13.89
2023-05-15T08:05:21.427Z,13.83
2023-05-15T08:08:00.791Z,13.97
2023-05-15T08:10:28.962Z,13.97
2023-05-15T08:12:57.676Z,14.07
2023-05-15T08:15:29.429Z,14.33
2023-05-15T08:17:58.843Z,14.74
2023-05-15T08:23:18.146Z,14.50
2023-05-15T08:25:53.651Z,14.48
2023-05-15T08:28:23.336Z,14.13
2023-05-15T08:30:51.613Z,14.16
2023-05-15T08:33:23.201Z,14.33
2023-05-15T08:35:58.059Z,14.72
2023-05-15T08:38:29.893Z,14.44
2023-05-15T08:41:00.715Z,14.55
2023-05-15T08:43:39.151Z,14.53
2023-05-15T08:46:07.934Z,14.65
2023-05-15T08:48:47.313Z,14.46
2023-05-15T08:51:21.389Z,14.33
2023-05-15T08:53:54.713Z,14.58
2023-05-15T08:56:25.180Z,14.78
2023-05-15T08:58:53.598Z,14.88
2023-05-15T09:01:22.364Z,14.67
2023-05-15T09:03:52.099Z,14.67
2023-05-15T09:06:20.761Z,14.56
2023-05-15T09:08:56.248Z,14.52
2023-05-15T09:11:25.965Z,14.52
2023-05-15T09:14:04.013Z,14.37
2023-05-15T09:16:36.116Z,14.45
2023-05-15T09:19:06.928Z,14.37
2023-05-15T09:21:37.550Z,14.33
2023-05-15T09:24:24.580Z,14.63
2023-05-15T09:27:06.811Z,14.59
2023-05-15T09:29:37.090Z,15.05
2023-05-15T09:32:08.336Z,14.98
2023-05-15T09:34:39.490Z,15.25
2023-05-15T09:37:11.674Z,15.04
2023-05-15T09:39:52.567Z,15.08
2023-05-15T09:42:22.686Z,15.08
2023-05-15T09:44:56.697Z,15.10
2023-05-15T09:47:27.823Z,15.20
2023-05-15T09:49:58.336Z,15.21
2023-05-15T09:52:26.775Z,15.31
2023-05-15T09:55:07.540Z,15.34
2023-05-15T09:57:35.758Z,15.73
2023-05-15T10:00:12.325Z,16.03
2023-05-15T10:02:44.486Z,16.45
2023-05-15T10:05:13.402Z,16.30
2023-05-15T10:07:41.515Z,16.50
2023-05-15T10:10:13.511Z,16.30
2023-05-15T10:12:44.210Z,16.15
2023-05-15T10:15:18.204Z,16.17
2023-05-15T10:17:49.035Z,16.51
2023-05-15T10:20:27.485Z,16.16
2023-05-15T10:22:59.668Z,16.28
2023-05-15T10:26:04.140Z,16.31
2023-05-15T10:28:37.115Z,15.92
2023-05-15T10:31:08.578Z,15.96
2023-05-15T10:33:40.258Z,16.10
2023-05-15T10:36:12.197Z,16.63
2023-05-15T10:38:43.806Z,16.56
2023-05-15T10:41:19.465Z,16.25
2023-05-15T10:43:53.975Z,16.22
2023-05-15T10:46:28.132Z,15.88
2023-05-15T10:49:02.717Z,15.81
2023-05-15T10:51:33.584Z,15.76
2023-05-15T10:54:03.821Z,15.69
2023-05-15T10:56:41.274Z,15.98
2023-05-15T10:59:11.111Z,16.05
2023-05-15T11:01:49.316Z,16.36
2023-05-15T11:04:26.862Z,16.51
2023-05-15T11:07:19.166Z,16.36
2023-05-15T11:09:48.649Z,16.62
2023-05-15T11:12:23.256Z,17.40
2023-05-15T11:15:24.597Z,17.79
2023-05-15T11:18:08.064Z,17.43
2023-05-15T11:20:41.337Z,16.77
2023-05-15T11:23:17.776Z,17.18
2023-05-15T11:26:02.201Z,16.86
2023-05-15T11:28:33.177Z,17.02
2023-05-15T11:31:09.409Z,17.03
2023-05-15T11:33:47.262Z,17.18
2023-05-15T11:36:20.104Z,16.92
2023-05-15T11:38:52.277Z,17.22
2023-05-15T11:41:29.903Z,17.25
2023-05-15T11:44:04.649Z,17.25
2023-05-15T11:46:36.877Z,17.39
2023-05-15T11:49:04.981Z,17.58
2023-05-15T11:51:43.331Z,17.26
2023-05-15T11:54:17.155Z,17.77
2023-05-15T11:56:48.328Z,18.00
2023-05-15T11:59:35.631Z,17.65
2023-05-15T12:02:07.406Z,17.18
2023-05-15T12:04:38.716Z,17.47
2023-05-15T12:07:13.353Z,17.58
2023-05-15T12:09:41.699Z,17.18
2023-05-15T12:12:17.955Z,17.10
2023-05-15T12:14:47.762Z,17.63
2023-05-15T12:17:25.010Z,17.66
2023-05-15T12:19:53.730Z,18.27
2023-05-15T12:22:23.031Z,17.84
2023-05-15T12:25:00.944Z,17.68
2023-05-15T12:27:29.107Z,18.13
2023-05-15T12:30:14.506Z,18.90
2023-05-15T12:32:43.680Z,19.18
2023-05-15T12:35:16.104Z,19.18
2023-05-15T12:37:46.582Z,19.44
2023-05-15T12:40:17.898Z,19.07
2023-05-15T12:42:47.746Z,19.48
2023-05-15T12:45:24.185Z,19.36
2023-05-15T12:47:53.786Z,19.04
2023-05-15T12:50:26.672Z,18.35
2023-05-15T12:52:57.631Z,18.27
2023-05-15T12:55:28.194Z,18.76
2023-05-15T12:58:00.975Z,18.51
2023-05-15T13:00:37.807Z,18.68
2023-05-15T13:03:09.169Z,18.16
2023-05-15T13:05:39.688Z,18.49
2023-05-15T13:08:08.438Z,18.26
2023-05-15T13:10:47.339Z,18.09
2023-05-15T13:13:16.590Z,18.25
2023-05-15T13:15:48.909Z,18.69
2023-05-15T13:18:21.970Z,17.87
2023-05-15T13:21:01.971Z,18.17
2023-05-15T13:23:31.889Z,18.26
2023-05-15T13:25:59.958Z,18.53
2023-05-15T13:28:32.126Z,18.07
2023-05-15T13:31:08.760Z,17.86
2023-05-15T13:33:39.594Z,17.94
2023-05-15T13:36:08.503Z,18.23
2023-05-15T13:38:39.239Z,18.64
2023-05-15T13:41:10.747Z,19.86
2023-05-15T13:43:41.346Z,19.32
2023-05-15T13:46:13.129Z,19.48
2023-05-15T13:48:49.534Z,19.85
2023-05-15T13:51:20.726Z,19.55
2023-05-15T13:53:54.202Z,18.71
2023-05-15T13:56:25.526Z,18.22
2023-05-15T13:58:55.008Z,18.66
2023-05-15T14:01:26.904Z,19.06
2023-05-15T14:03:58.193Z,19.53
2023-05-15T14:06:28.071Z,19.40
2023-05-15T14:08:56.780Z,19.19
2023-05-15T14:11:25.168Z,18.71
2023-05-15T14:13:54.906Z,19.14
2023-05-15T14:16:25.499Z,20.04
2023-05-15T14:18:56.560Z,20.73
2023-05-15T14:21:25.064Z,21.33
2023-05-15T14:23:54.785Z,20.87
2023-05-15T14:26:26.316Z,20.04
2023-05-15T14:29:03.062Z,20.13
2023-05-15T14:31:33.356Z,19.31
2023-05-15T14:34:15.189Z,19.78
2023-05-15T14:36:43.129Z,19.47
2023-05-15T14:39:16.687Z,19.03
2023-05-15T14:41:45.931Z,19.61
2023-05-15T14:44:16.541Z,20.55
2023-05-15T14:46:47.449Z,20.97
2023-05-15T14:49:36.538Z,19.49
2023-05-15T14:52:10.973Z,19.69
2023-05-15T14:54:41.232Z,19.83
2023-05-15T14:57:15.526Z,20.48
2023-05-15T14:59:43.590Z,20.76
2023-05-15T15:02:17.148Z,19.47
2023-05-15T15:04:48.128Z,19.15
2023-05-15T15:07:22.111Z,18.98
2023-05-15T15:09:55.172Z,19.47
2023-05-15T15:12:24.349Z,20.37
2023-05-15T15:14:56.062Z,20.38
2023-05-15T15:17:24.112Z,20.64
2023-05-15T15:19:54.413Z,21.01
2023-05-15T15:22:31.994Z,20.98
2023-05-15T15:25:01.434Z,21.10
2023-05-15T15:27:30.958Z,20.38
2023-05-15T15:29:58.975Z,20.31
2023-05-15T15:32:28.933Z,19.97
2023-05-15T15:34:58.865Z,20.19
2023-05-15T15:37:29.004Z,20.70
2023-05-15T15:39:58.576Z,20.41
2023-05-15T15:42:29.177Z,20.14
2023-05-15T15:45:08.938Z,20.15
2023-05-15T15:47:46.783Z,20.71
2023-05-15T15:50:19.890Z,20.88
2023-05-15T15:52:48.199Z,21.32
2023-05-15T15:55:19.370Z,20.09
2023-05-15T15:57:52.201Z,20.39
2023-05-15T16:00:23.599Z,20.02
2023-05-15T16:02:54.037Z,19.82
2023-05-15T16:05:28.852Z,20.40
2023-05-15T16:07:57.190Z,19.88
2023-05-15T16:10:35.880Z,20.71
2023-05-15T16:13:04.280Z,20.74
2023-05-15T16:15:40.636Z,19.90
2023-05-15T16:18:11.713Z,19.81
2023-05-15T16:20:47.010Z,19.24
2023-05-15T16:23:28.594Z,19.54
2023-05-15T16:25:57.825Z,19.58
2023-05-15T16:28:30.166Z,19.30
2023-05-15T16:31:00.795Z,18.79
2023-05-15T16:33:37.962Z,19.78
2023-05-15T16:36:19.557Z,20.16
2023-05-15T16:38:56.142Z,20.23
2023-05-15T16:41:31.136Z,19.98
2023-05-15T16:44:09.186Z,20.78
2023-05-15T16:46:48.297Z,20.62
2023-05-15T16:49:19.425Z,20.49
2023-05-15T16:51:55.025Z,20.17
2023-05-15T16:54:23.925Z,20.07
2023-05-15T16:56:55.005Z,19.77
2023-05-15T16:59:26.039Z,19.72
2023-05-15T17:01:59.699Z,19.69
2023-05-15T17:04:32.745Z,20.29
2023-05-15T17:07:17.150Z,20.36
2023-05-15T17:09:51.871Z,19.94
2023-05-15T17:12:29.266Z,20.00
2023-05-15T17:15:01.473Z,19.85
2023-05-15T17:17:38.676Z,19.36
2023-05-15T17:20:20.212Z,19.62
2023-05-15T17:22:52.802Z,19.54
2023-05-15T17:25:26.269Z,19.35
2023-05-15T17:28:06.573Z,19.65
2023-05-15T17:30:37.925Z,19.37
2023-05-15T17:33:06.843Z,19.31
2023-05-15T17:35:38.742Z,19.08
2023-05-15T17:38:14.219Z,18.98
2023-05-15T17:40:44.140Z,18.55
2023-05-15T17:43:22.987Z,18.43
2023-05-15T17:45:58.532Z,18.02
2023-05-15T17:48:30.172Z,18.24
2023-05-15T17:51:00.638Z,18.43
2023-05-15T17:53:38.489Z,18.26
2023-05-15T17:56:21.182Z,18.22
2023-05-15T17:59:00.902Z,18.22
2023-05-15T18:01:36.046Z,17.87
2023-05-15T18:04:07.806Z,17.81
2023-05-15T18:06:40.408Z,17.82
2023-05-15T18:09:20.308Z,17.80
2023-05-15T18:11:53.654Z,17.93
2023-05-15T18:14:26.078Z,17.72
2023-05-15T18:17:00.591Z,17.74
2023-05-15T18:19:38.846Z,17.56
2023-05-15T18:22:10.427Z,17.89
2023-05-15T18:24:44.011Z,17.50
2023-05-15T18:27:27.866Z,17.40
2023-05-15T18:30:04.197Z,17.42
2023-05-15T18:32:42.994Z,17.11
2023-05-15T18:35:15.677Z,17.31
2023-05-15T18:37:47.152Z,17.34
2023-05-15T18:40:22.718Z,17.19
2023-05-15T18:42:58.842Z,17.16
2023-05-15T18:45:28.283Z,16.98
2023-05-15T18:48:01.624Z,17.15
2023-05-15T18:50:40.613Z,17.02
2023-05-15T18:53:18.616Z,17.26
2023-05-15T18:56:11.095Z,16.93
2023-05-15T18:58:51.745Z,17.24
2023-05-15T19:01:21.602Z,16.89
2023-05-15T19:03:55.454Z,16.89
2023-05-15T19:06:25.089Z,16.85
2023-05-15T19:09:06.029Z,16.98
2023-05-15T19:11:38.854Z,16.87
2023-05-15T19:14:24.154Z,16.66
2023-05-15T19:17:06.608Z,16.67
2023-05-15T19:19:49.755Z,16.78
2023-05-15T19:22:26.140Z,16.72
2023-05-15T19:25:07.706Z,16.59
2023-05-15T19:27:44.136Z,16.61
2023-05-15T19:30:15.577Z,16.65
2023-05-15T19:32:47.584Z,16.61
2023-05-15T19:35:22.325Z,16.66
2023-05-15T19:37:59.057Z,16.42
2023-05-15T19:40:32.337Z,16.52
2023-05-15T19:43:12.534Z,16.60
2023-05-15T19:45:43.984Z,16.49
2023-05-15T19:48:13.639Z,16.36
2023-05-15T19:50:46.732Z,16.39
2023-05-15T19:53:20.810Z,16.43
2023-05-15T19:55:50.457Z,16.38
2023-05-15T19:58:26.894Z,16.23
2023-05-15T20:01:03.670Z,16.17
2023-05-15T20:03:34.742Z,16.19
2023-05-15T20:06:06.527Z,16.12
2023-05-15T20:08:39.323Z,16.17
2023-05-15T20:11:13.782Z,16.15
2023-05-15T20:14:03.132Z,16.12
2023-05-15T20:16:36.210Z,16.12
2023-05-15T20:19:07.153Z,16.13
2023-05-15T20:21:39.025Z,16.08
2023-05-15T20:24:13.606Z,15.98
2023-05-15T20:26:46.469Z,16.10
2023-05-15T20:29:23.196Z,16.03
2023-05-15T20:31:54.959Z,16.15
2023-05-15T20:34:25.036Z,16.03
2023-05-15T20:37:00.577Z,15.87
2023-05-15T20:39:35.492Z,15.77
2023-05-15T20:42:08.295Z,15.78
2023-05-15T20:44:48.156Z,15.76
2023-05-15T20:47:29.427Z,15.56
2023-05-15T20:50:01.255Z,15.69
2023-05-15T20:52:32.119Z,15.52
2023-05-15T20:55:02.281Z,15.59
2023-05-15T20:57:38.300Z,15.61
2023-05-15T21:00:13.204Z,15.73
2023-05-15T21:02:50.795Z,15.60
2023-05-15T21:05:24.865Z,15.57
2023-05-15T21:07:54.477Z,15.62
2023-05-15T21:10:24.981Z,15.75
2023-05-15T21:13:03.818Z,15.60
2023-05-15T21:15:38.949Z,15.75
2023-05-15T21:18:11.912Z,15.70
2023-05-15T21:20:45.620Z,15.85
2023-05-15T21:23:16.890Z,15.61
2023-05-15T21:25:45.884Z,15.43
2023-05-15T21:28:17.432Z,15.59
2023-05-15T21:31:07.203Z,15.54
2023-05-15T21:33:37.386Z,15.59
2023-05-15T21:36:19.153Z,15.56
2023-05-15T21:38:58.853Z,15.72
2023-05-15T21:41:28.050Z,15.55
2023-05-15T21:44:05.221Z,15.37
2023-05-15T21:46:38.846Z,15.52
2023-05-15T21:49:15.022Z,15.42
2023-05-15T21:51:46.642Z,15.41
2023-05-15T21:54:21.167Z,15.53
2023-05-15T21:56:52.218Z,15.39
2023-05-15T21:59:24.352Z,15.28
2023-05-15T22:02:02.060Z,15.34
2023-05-15T22:04:39.745Z,15.13
2023-05-15T22:07:14.425Z,15.27
2023-05-15T22:09:43.829Z,15.13
2023-05-15T22:12:20.790Z,15.22
2023-05-15T22:14:58.892Z,15.15
2023-05-15T22:17:36.599Z,15.04
2023-05-15T22:20:11.480Z,15.08
2023-05-15T22:22:46.405Z,14.83
2023-05-15T22:25:24.054Z,15.03
2023-05-15T22:28:03.528Z,15.01
2023-05-15T22:30:34.374Z,14.95
2023-05-15T22:33:24.108Z,14.93
2023-05-15T22:35:55.892Z,15.09
2023-05-15T22:38:25.637Z,15.03
2023-05-15T22:40:55.070Z,14.86
2023-05-15T22:43:26.706Z,14.93
2023-05-15T22:45:57.793Z,14.87
2023-05-15T22:48:37.089Z,15.27
2023-05-15T22:51:06.952Z,15.22
2023-05-15T22:53:36.349Z,15.14
2023-05-15T22:56:06.934Z,15.12
2023-05-15T22:58:37.145Z,15.14
2023-05-15T23:01:08.119Z,15.42
2023-05-15T23:03:53.914Z,15.39
2023-05-15T23:06:31.455Z,15.33
2023-05-15T23:09:03.553Z,15.32
2023-05-15T23:11:34.274Z,15.21
2023-05-15T23:14:03.785Z,15.37
2023-05-15T23:16:32.886Z,15.28
2023-05-15T23:19:03.073Z,15.05
2023-05-15T23:21:43.051Z,15.21
2023-05-15T23:24:13.931Z,14.99
2023-05-15T23:26:47.933Z,15.06
2023-05-15T23:29:21.860Z,14.93
2023-05-15T23:31:50.855Z,15.17
2023-05-15T23:34:24.008Z,14.97
2023-05-15T23:36:55.809Z,14.83
2023-05-15T23:39:32.296Z,14.94
2023-05-15T23:42:05.752Z,14.98
2023-05-15T23:44:34.728Z,14.91
2023-05-15T23:47:05.294Z,14.87
2023-05-15T23:49:36.924Z,14.68
2023-05-15T23:52:08.587Z,14.77
2023-05-15T23:54:40.503Z,14.67
2023-05-15T23:57:14.165Z,14.77
2023-05-15T23:59:45.871Z,14.74
